Flight Track Log - Related Links

Times and Time Zones

All times are in EDT time to prevent confusion due to time zone crossing. See the BJS542 flight status page for this flight to view local times or setup timezone preferences in your user account.

Time Position Orientation Groundspeed Altitude Reporting Facility
EDT Latitude Longitude Course Direction KTS MPH feet Rate Location/Type
Thu 01:39:22 PM 27.6436 -80.3872 319° Northwest 430 495 1,800  Level Miami Center
Thu 01:40:22 PM 27.6372 -80.3119 95° East 320 368 3,900 1,150 Climbing Miami Center
Thu 01:41:22 PM 27.7019 -80.3022 North 222 255 4,100 1,850 Climbing Miami Center
Thu 01:42:22 PM 27.7253 -80.3781 289° West 160 184 7,600 3,750 Climbing Miami Center
Thu 01:43:22 PM 27.7481 -80.4703 286° West 256 295 11,600 3,500 Climbing Miami Center
Thu 01:44:00 PM 28.1945 -80.9778 319° Northwest  Level FlightAware Approximate
Thu 01:44:22 PM 27.7706 -80.5694 284° West 319 367 14,600  Level Miami Center
Thu 01:45:22 PM 27.7928 -80.6781 283° West 349 402 17,800 3,150 Climbing Miami Center
Thu 01:46:22 PM 27.8147 -80.7917 282° West 363 418 20,900 2,550 Climbing Miami Center
Thu 01:47:22 PM 27.8647 -80.8731 305° West 354 407 22,900 1,250 Climbing Miami Center
Thu 01:48:22 PM 27.9653 -80.9378 330° Northwest 380 437 23,400 1,050 Climbing Miami Center
Thu 01:49:22 PM 28.0589 -81.0189 323° Northwest 401 461 25,000 2,250 Climbing Miami Center
Thu 01:50:22 PM 28.1389 -81.1347 308° West 412 474 27,900 2,650 Climbing Miami Center
Thu 01:51:22 PM 28.2347 -81.2136 324° Northwest 423 487 30,300 2,050 Climbing Miami Center
Thu 01:52:22 PM 28.3303 -81.2928 324° Northwest 428 493 32,000 1,800 Climbing Miami Center
Thu 01:53:22 PM 28.4392 -81.3467 336° Northwest 418 481 33,900 1,900 Climbing Miami Center
Thu 01:54:22 PM 28.5644 -81.3400 North 417 480 35,800 1,773 Climbing Miami Center
Thu 01:54:50 PM 28.6228 -81.3458 355° North 425 489 36,500 1,636 Climbing Jacksonville Center
Thu 01:55:50 PM 28.7458 -81.3558 356° North 462 532 38,200 1,250 Climbing Jacksonville Center
Thu 01:56:50 PM 28.8650 -81.3681 355° North 456 525 39,000 400 Climbing Jacksonville Center
Thu 01:57:50 PM 28.9903 -81.3806 355° North 437 503 39,000  Level Jacksonville Center
Thu 01:58:50 PM 29.1117 -81.3975 353° North 437 503 39,000  Level Jacksonville Center
Thu 01:59:50 PM 29.1997 -81.4294 342° North 416 479 39,000 1,050 Level Jacksonville Center
Thu 02:00:50 PM 29.3172 -81.4778 340° North 416 479 41,100 1,700 Climbing Jacksonville Center
Thu 02:01:50 PM 29.4200 -81.5192 341° North 404 465 42,400 950 Climbing Jacksonville Center
Thu 02:02:50 PM 29.5225 -81.5608 341° North 393 452 43,000 300 Climbing Jacksonville Center
Thu 02:03:50 PM 29.6275 -81.6025 341° North 393 452 43,000  Level Jacksonville Center
Thu 02:04:50 PM 29.7364 -81.6464 341° North 398 458 43,000  Level Jacksonville Center
Thu 02:05:50 PM 29.8475 -81.6928 340° North 408 470 43,000  Level Jacksonville Center
Thu 02:06:50 PM 29.9564 -81.7369 341° North 408 470 43,000  Level Jacksonville Center
Thu 02:07:50 PM 30.0694 -81.7764 343° North 413 475 43,000  Level Jacksonville Center
Thu 02:08:50 PM 30.1764 -81.8233 339° North 413 475 43,000  Level Jacksonville Center
Thu 02:09:50 PM 30.2853 -81.8653 342° North 406 467 43,000  Level Jacksonville Center
Thu 02:10:50 PM 30.3922 -81.9100 340° North 406 467 43,000  Level Jacksonville Center
Thu 02:11:50 PM 30.5031 -81.9569 340° North 412 474 43,000 -250 Level Jacksonville Center
Thu 02:12:50 PM 30.6247 -82.0114 339° North 412 474 42,500 -800 Descending Jacksonville Center
Thu 02:13:50 PM 30.7336 -82.0564 340° North 412 474 41,400 -1,000 Descending Jacksonville Center
Thu 02:14:50 PM 30.8486 -82.1036 341° North 417 480 40,500 -1,000 Descending Jacksonville Center
Thu 02:15:50 PM 30.9556 -82.1514 339° North 417 480 39,400 -1,050 Descending Jacksonville Center
Thu 02:16:50 PM 31.0600 -82.1964 340° North 406 467 38,400 -1,000 Descending Jacksonville Center
Thu 02:17:50 PM 31.1628 -82.2369 341° North 399 459 37,400 -950 Descending Jacksonville Center
Thu 02:18:50 PM 31.2672 -82.2800 341° North 394 453 36,500 -1,000 Descending Jacksonville Center
Thu 02:19:50 PM 31.3781 -82.3281 340° North 399 459 35,400 -1,024 Descending Jacksonville Center
Thu 02:21:34 PM 31.5792 -82.4081 341° North 435 501 33,700 -878 Descending Atlanta Center
Thu 02:22:34 PM 31.6969 -82.4597 340° North 445 512 33,000 -350 Descending Atlanta Center
Thu 02:23:34 PM 31.8144 -82.5089 340° North 445 512 33,000  Level Atlanta Center
Thu 02:24:34 PM 31.9278 -82.5583 340° North 445 512 33,000  Level Atlanta Center
Thu 02:25:34 PM 32.0389 -82.6128 337° Northwest 438 504 33,000  Level Atlanta Center
Thu 02:26:34 PM 32.1378 -82.6875 327° Northwest 429 494 33,000 -600 Level Atlanta Center
Thu 02:27:34 PM 32.2389 -82.7644 327° Northwest 424 488 31,800 -1,450 Descending Atlanta Center
Thu 02:28:34 PM 32.3378 -82.8417 327° Northwest 429 494 30,100 -1,650 Descending Atlanta Center
Thu 02:29:34 PM 32.4367 -82.9192 327° Northwest 429 494 28,500 -1,600 Descending Atlanta Center
Thu 02:30:34 PM 32.5353 -82.9942 327° Northwest 424 488 26,900 -1,600 Descending Atlanta Center
Thu 02:31:34 PM 32.6342 -83.0694 327° Northwest 424 488 25,300 -1,800 Descending Atlanta Center
Thu 02:32:34 PM 32.7306 -83.1475 326° Northwest 424 488 23,300 -2,250 Descending Atlanta Center
Thu 02:33:34 PM 32.8147 -83.2133 327° Northwest 419 482 20,800 -2,700 Descending Atlanta Center
Thu 02:34:34 PM 32.9175 -83.2889 328° Northwest 419 482 17,900 -1,900 Descending Atlanta Center
Thu 02:35:34 PM 33.0033 -83.3625 324° Northwest 400 460 17,000 -450 Descending Atlanta Center
Thu 02:36:34 PM 33.0914 -83.4289 328° Northwest 376 433 17,000 -450 Level Atlanta Center
Thu 02:37:34 PM 33.1753 -83.4928 327° Northwest 376 433 16,100 -1,400 Descending Atlanta Center
Thu 02:38:34 PM 33.2528 -83.5544 326° Northwest 350 403 14,200 -1,700 Descending Atlanta Center
Thu 02:39:34 PM 33.3156 -83.6064 325° Northwest 326 375 12,700 -1,550 Descending Atlanta Center
Thu 02:40:34 PM 33.3825 -83.6608 326° Northwest 302 348 11,100 -2,000 Descending Atlanta Center
Thu 02:41:34 PM 33.4556 -83.7003 336° Northwest 287 330 8,700 -2,650 Descending Atlanta Center
Thu 02:42:34 PM 33.5267 -83.7372 337° Northwest 279 321 5,800 -1,950 Descending Atlanta Center
Thu 02:43:34 PM 33.5853 -83.7694 335° Northwest 259 298 4,800 -900 Descending Atlanta Center
Thu 02:44:34 PM 33.6478 -83.8017 337° Northwest 242 278 4,000 -400 Descending Atlanta Center
Thu 02:45:34 PM 33.7044 -83.8342 334° Northwest 231 266 4,000  Level Atlanta Center
Thu 02:46:34 PM 33.7567 -83.8764 326° Northwest 226 260 4,000  Level Atlanta Center
Thu 02:48:18 PM 33.8333 -83.9667 316° Northwest 228 262 4,000 -73 Level Atlanta TRACON
Thu 02:49:18 PM 33.8833 -84.0167 320° Northwest 228 262 3,800 -500 Descending Atlanta TRACON
Thu 02:50:18 PM 33.9167 -84.0833 301° West 217 250 3,000 -400 Descending Atlanta TRACON
Thu 02:51:18 PM 33.9333 -84.1500 287° West 229 264 3,000 -143 Level Atlanta TRACON
Thu 02:52:24 PM 33.9333 -84.2167 270° West 172 198 2,700 -476 Descending Atlanta TRACON
Thu 02:53:24 PM 33.9167 -84.2667 248° West 152 175 2,000 -700 Descending Atlanta TRACON
Thu 02:55:00 PM 33.8667 -84.3000 220° Southwest  Level FlightAware Approximate
Thu 03:02:00 PM 33.8756 -84.3020 220° Southwest  Level Estimated
Thu 03:03:00 PM 33.8756 -84.3020 220° Southwest  Level Estimated

Login

Don't have an account? Register now (free) for customized features, flight alerts, and more!